Time;durP1;ratioP1;P1;durP2;ratioP2;P2;SDS_P1;SDS_P2;PMS_P1;PMS_P2;Temp;Humidity;BMP_temperature;BMP_pressure;BME280_temperature;BME280_humidity;BME280_pressure;Samples;Min_cycle;Max_cycle;Signal;HPM_P1;HPM_P2
2023/03/13 00:01:36;;;;;;;36.53;8.53;;;8.50;99.90;;;;;;5137611;27;20039;-77
2023/03/13 00:04:02;;;;;;;31.90;8.07;;;8.50;99.90;;;;;;5101023;27;20047;-78
2023/03/13 00:06:33;;;;;;;28.23;7.90;;;8.40;99.90;;;;;;5110079;27;20054;-78
2023/03/13 00:09:00;;;;;;;32.67;7.63;;;8.40;99.90;;;;;;5118033;27;20046;-78
2023/03/13 00:11:26;;;;;;;28.30;8.00;;;8.40;99.90;;;;;;5119137;27;20035;-78
2023/03/13 00:14:00;;;;;;;33.80;8.37;;;8.40;99.90;;;;;;5117617;27;20114;-78
2023/03/13 00:16:26;;;;;;;28.97;7.70;;;8.30;99.90;;;;;;5101576;27;20054;-77
2023/03/13 00:18:54;;;;;;;30.23;7.23;;;8.30;99.90;;;;;;5137254;27;20152;-77
2023/03/13 00:21:23;;;;;;;35.03;9.10;;;8.30;99.90;;;;;;5117847;27;20038;-77
2023/03/13 00:23:49;;;;;;;31.13;7.27;;;8.30;99.90;;;;;;5137686;27;20035;-78
2023/03/13 00:26:18;;;;;;;32.67;7.17;;;8.30;99.90;;;;;;5115777;27;20543;-78
2023/03/13 00:28:44;;;;;;;26.67;7.57;;;8.30;99.90;;;;;;5118863;27;20054;-78
2023/03/13 00:31:16;;;;;;;31.73;6.83;;;8.30;99.90;;;;;;5117109;27;20676;-78
2023/03/13 00:33:43;;;;;;;;;;;8.30;99.90;;;;;;5137883;27;20059;-76
2023/03/13 00:36:12;;;;;;;30.37;8.40;;;8.30;99.90;;;;;;5117804;27;19923;-78
2023/03/13 00:38:38;;;;;;;32.60;8.00;;;8.30;99.90;;;;;;5116831;27;20047;-78
2023/03/13 00:41:23;;;;;;;31.27;6.97;;;8.30;99.90;;;;;;5118588;27;20039;-78
2023/03/13 00:43:49;;;;;;;29.50;7.40;;;8.30;99.90;;;;;;5134881;27;20506;-78
2023/03/13 00:46:17;;;;;;;28.13;7.67;;;8.30;99.90;;;;;;5118659;27;20046;-77
2023/03/13 00:48:43;;;;;;;31.73;8.17;;;8.30;99.90;;;;;;5135278;27;20058;-78
2023/03/13 00:51:09;;;;;;;28.93;7.53;;;8.30;99.90;;;;;;5117803;27;20502;-78
2023/03/13 00:53:35;;;;;;;33.57;7.93;;;8.20;99.90;;;;;;5136904;27;20126;-77
2023/03/13 00:56:05;;;;;;;26.33;7.90;;;8.20;99.90;;;;;;5116627;27;20053;-78
2023/03/13 00:58:33;;;;;;;26.47;7.30;;;8.20;99.90;;;;;;5136989;27;20103;-78
2023/03/13 01:01:17;;;;;;;31.67;7.87;;;8.20;99.90;;;;;;5134830;27;20047;-78
2023/03/13 01:03:46;;;;;;;33.10;7.53;;;8.20;99.90;;;;;;5116668;27;20055;-78
2023/03/13 01:06:14;;;;;;;29.60;7.60;;;8.20;99.90;;;;;;5110858;28;20051;-78
2023/03/13 01:08:40;;;;;;;25.50;6.83;;;8.20;99.90;;;;;;5105696;27;20536;-78
2023/03/13 01:11:09;;;;;;;28.33;7.13;;;8.20;99.90;;;;;;5118379;27;20039;-78
2023/03/13 01:13:35;;;;;;;27.67;6.97;;;8.20;99.90;;;;;;5115932;27;20510;-77
2023/03/13 01:16:04;;;;;;;30.87;8.27;;;8.20;99.90;;;;;;5136717;27;20039;-78
2023/03/13 01:18:30;;;;;;;28.33;8.03;;;8.20;99.90;;;;;;5135076;27;20081;-78
2023/03/13 01:20:55;;;;;;;34.03;7.87;;;8.20;99.90;;;;;;5100370;27;20042;-77
2023/03/13 01:23:21;;;;;;;33.60;8.40;;;8.20;99.90;;;;;;5083511;27;20043;-77
2023/03/13 01:25:47;;;;;;;27.17;7.60;;;8.20;99.90;;;;;;5116488;27;20558;-78
2023/03/13 01:28:13;;;;;;;24.37;6.93;;;8.20;99.90;;;;;;5136556;27;20046;-78
2023/03/13 01:30:39;;;;;;;28.57;8.40;;;8.20;99.90;;;;;;5123247;27;20066;-78
2023/03/13 01:33:04;;;;;;;21.10;6.87;;;8.20;99.90;;;;;;5118510;27;20038;-78
2023/03/13 01:35:30;;;;;;;27.47;6.40;;;8.20;99.90;;;;;;5082284;27;20039;-77
2023/03/13 01:37:56;;;;;;;22.40;7.10;;;8.20;99.90;;;;;;5117396;27;20051;-78
2023/03/13 01:40:22;;;;;;;22.07;6.60;;;8.20;99.90;;;;;;5135606;27;20105;-77
2023/03/13 01:42:56;;;;;;;27.67;7.37;;;8.30;99.90;;;;;;5134486;27;20039;-78
2023/03/13 01:45:59;;;;;;;22.00;7.20;;;8.30;99.90;;;;;;5136113;27;20058;-78
2023/03/13 01:48:32;;;;;;;32.57;6.90;;;8.30;99.90;;;;;;5112290;28;20492;-78
2023/03/13 01:51:00;;;;;;;27.30;7.35;;;8.30;99.90;;;;;;5096550;28;20046;-78
2023/03/13 01:53:28;;;;;;;23.40;7.13;;;8.30;99.90;;;;;;5115246;28;20105;-78
2023/03/13 01:55:56;;;;;;;23.70;6.70;;;8.30;99.90;;;;;;5112381;28;20075;-78
2023/03/13 01:58:22;;;;;;;26.73;6.93;;;8.30;99.90;;;;;;5114315;28;20039;-77
2023/03/13 02:00:48;;;;;;;26.03;7.73;;;8.30;99.90;;;;;;5112429;28;20460;-77
2023/03/13 02:03:18;;;;;;;25.53;7.03;;;8.40;99.90;;;;;;5115799;28;20047;-77
2023/03/13 02:05:46;;;;;;;30.87;7.00;;;8.40;99.90;;;;;;5111123;28;20059;-77
2023/03/13 02:08:21;;;;;;;21.40;6.80;;;8.40;99.90;;;;;;5110838;28;20055;-78
2023/03/13 02:10:57;;;;;;;26.27;6.93;;;8.40;99.90;;;;;;5114187;28;20099;-78
2023/03/13 02:13:24;;;;;;;23.40;7.57;;;8.50;99.90;;;;;;5098670;28;20402;-78
2023/03/13 02:15:50;;;;;;;26.93;7.30;;;8.50;99.90;;;;;;5097221;28;20044;-77
2023/03/13 02:18:16;;;;;;;32.07;7.67;;;8.50;99.90;;;;;;5095507;28;20112;-77
2023/03/13 02:20:42;;;;;;;29.33;8.80;;;8.50;99.90;;;;;;5084497;28;20578;-76
2023/03/13 02:23:46;;;;;;;25.77;7.90;;;8.50;99.90;;;;;;5111186;28;20060;-77
2023/03/13 02:26:12;;;;;;;25.10;6.80;;;8.50;99.90;;;;;;5049657;28;20144;-78
2023/03/13 02:28:38;;;;;;;27.20;8.07;;;8.50;99.90;;;;;;5100787;28;20059;-78
2023/03/13 02:31:05;;;;;;;31.23;7.40;;;8.40;99.90;;;;;;5113027;28;20044;-77
2023/03/13 02:33:40;;;;;;;30.70;8.10;;;8.40;99.90;;;;;;5096772;28;20066;-78
2023/03/13 02:36:07;;;;;;;23.10;7.47;;;8.50;99.90;;;;;;5112891;28;20093;-78
2023/03/13 02:38:43;;;;;;;22.13;7.33;;;8.40;99.90;;;;;;5113155;28;20040;-78
2023/03/13 02:41:10;;;;;;;19.47;6.47;;;8.50;99.90;;;;;;5115091;28;20051;-77
2023/03/13 02:43:37;;;;;;;21.40;6.67;;;8.50;99.90;;;;;;5094595;28;20089;-78
2023/03/13 02:46:11;;;;;;;20.83;6.77;;;8.50;99.90;;;;;;5113225;28;20051;-78
2023/03/13 02:48:41;;;;;;;15.27;6.17;;;8.50;99.90;;;;;;5112824;28;20055;-78
2023/03/13 02:51:33;;;;;;;16.90;6.60;;;8.50;99.90;;;;;;5097022;28;20047;-78
2023/03/13 02:54:03;;;;;;;17.63;5.80;;;8.50;99.90;;;;;;5113182;28;20145;-77
2023/03/13 02:56:33;;;;;;;16.90;5.67;;;8.50;99.90;;;;;;5115122;28;20077;-77
2023/03/13 02:58:58;;;;;;;14.50;5.60;;;8.50;99.90;;;;;;5119158;28;20044;-77
2023/03/13 03:01:24;;;;;;;19.47;5.67;;;8.60;99.90;;;;;;5115292;28;20050;-78
2023/03/13 03:03:50;;;;;;;15.37;5.87;;;8.60;99.90;;;;;;5099453;28;20050;-78
2023/03/13 03:06:16;;;;;;;13.83;5.70;;;8.60;99.90;;;;;;5116519;28;20051;-78
2023/03/13 03:08:42;;;;;;;11.00;5.13;;;8.60;99.90;;;;;;5096135;28;20044;-78
2023/03/13 03:11:09;;;;;;;10.93;5.27;;;8.60;99.90;;;;;;5114778;28;20050;-78
2023/03/13 03:13:34;;;;;;;12.63;5.07;;;8.60;99.90;;;;;;5115711;27;20042;-78
2023/03/13 03:16:09;;;;;;;13.07;5.37;;;8.60;99.90;;;;;;5118570;28;20099;-78
2023/03/13 03:18:35;;;;;;;9.70;4.60;;;8.60;99.90;;;;;;5115402;28;20101;-77
2023/03/13 03:21:05;;;;;;;11.50;4.80;;;8.70;99.90;;;;;;5098761;28;20047;-77
2023/03/13 03:23:34;;;;;;;11.03;4.87;;;8.70;99.90;;;;;;5116524;28;20103;-78
2023/03/13 03:26:01;;;;;;;10.43;4.80;;;8.70;99.90;;;;;;5116805;28;20500;-77
2023/03/13 03:28:26;;;;;;;15.10;5.80;;;8.70;99.90;;;;;;5118660;28;20661;-78
2023/03/13 03:30:53;;;;;;;10.20;5.40;;;8.70;99.90;;;;;;5116219;28;20039;-78
2023/03/13 03:33:23;;;;;;;10.97;4.87;;;8.80;99.90;;;;;;5099714;28;20094;-78
2023/03/13 03:35:49;;;;;;;9.10;4.73;;;8.80;99.90;;;;;;5117154;28;20044;-78
2023/03/13 03:38:16;;;;;;;11.10;4.90;;;8.80;99.90;;;;;;5117448;28;20043;-78
2023/03/13 03:40:41;;;;;;;8.83;4.80;;;8.80;99.90;;;;;;5116841;28;20047;-78
2023/03/13 03:43:07;;;;;;;9.40;4.90;;;8.90;99.90;;;;;;5115956;28;20043;-78
2023/03/13 03:45:33;;;;;;;11.20;4.70;;;8.90;99.90;;;;;;5117881;28;20076;-78
2023/03/13 03:47:58;;;;;;;9.80;5.07;;;8.90;99.90;;;;;;5108299;28;20094;-78
2023/03/13 03:50:25;;;;;;;12.47;5.20;;;8.90;99.90;;;;;;5089672;28;20035;-78
2023/03/13 03:52:51;;;;;;;8.87;4.73;;;9.00;99.90;;;;;;5098655;28;20112;-77
2023/03/13 03:55:18;;;;;;;10.90;4.87;;;9.00;99.90;;;;;;5111435;28;20067;-78
2023/03/13 03:57:43;;;;;;;9.20;5.10;;;9.00;99.90;;;;;;5104650;28;20056;-79
2023/03/13 04:00:12;;;;;;;10.27;5.20;;;9.10;99.90;;;;;;5102889;28;20502;-78
2023/03/13 04:02:38;;;;;;;10.57;5.57;;;9.10;99.90;;;;;;5095639;28;20055;-79
2023/03/13 04:05:04;;;;;;;8.87;5.23;;;9.10;99.90;;;;;;5082399;28;20032;-79
2023/03/13 04:07:30;;;;;;;10.33;5.70;;;9.10;99.90;;;;;;5107306;28;20444;-79
2023/03/13 04:09:56;;;;;;;9.60;5.37;;;9.20;99.90;;;;;;5104134;28;20036;-79
2023/03/13 04:12:21;;;;;;;8.63;5.07;;;9.30;99.90;;;;;;5092578;28;20086;-79
2023/03/13 04:14:47;;;;;;;9.40;5.33;;;9.20;99.90;;;;;;5080898;28;20055;-78
2023/03/13 04:17:13;;;;;;;11.53;5.33;;;9.30;99.90;;;;;;5101260;28;20494;-79
2023/03/13 04:19:39;;;;;;;9.47;5.20;;;9.40;99.90;;;;;;5111631;28;20047;-78
2023/03/13 04:22:05;;;;;;;7.47;4.70;;;9.40;99.90;;;;;;5104099;28;20039;-77
2023/03/13 04:24:30;;;;;;;7.23;5.13;;;9.40;99.90;;;;;;5085417;28;20581;-77
2023/03/13 04:26:56;;;;;;;7.07;4.90;;;9.50;99.90;;;;;;5101139;28;20040;-78
2023/03/13 04:29:22;;;;;;;9.93;5.63;;;9.50;99.90;;;;;;5112435;28;20052;-78
2023/03/13 04:31:48;;;;;;;8.27;5.40;;;9.60;99.90;;;;;;5102529;28;20107;-78
2023/03/13 04:34:13;;;;;;;8.73;5.37;;;9.60;99.90;;;;;;5105589;28;20125;-79
2023/03/13 04:36:39;;;;;;;8.27;5.33;;;9.60;99.90;;;;;;5105898;28;20093;-79
2023/03/13 04:39:05;;;;;;;9.63;5.57;;;9.70;99.90;;;;;;5098708;28;20260;-79
2023/03/13 04:41:30;;;;;;;8.90;5.53;;;9.70;99.90;;;;;;5107928;28;20060;-78
2023/03/13 04:43:56;;;;;;;8.37;5.43;;;9.70;99.90;;;;;;5101619;28;20103;-79
2023/03/13 04:46:22;;;;;;;7.57;5.20;;;9.80;99.90;;;;;;5109153;28;20048;-79
2023/03/13 04:48:47;;;;;;;9.37;6.00;;;9.80;99.90;;;;;;5111470;28;20117;-78
2023/03/13 04:51:13;;;;;;;10.67;5.93;;;9.80;99.90;;;;;;5097301;28;20040;-79
2023/03/13 04:53:39;;;;;;;8.83;6.40;;;9.90;99.90;;;;;;5116740;28;20039;-79
2023/03/13 04:56:05;;;;;;;8.43;5.87;;;9.90;99.90;;;;;;5096303;28;20082;-78
2023/03/13 04:58:31;;;;;;;14.23;7.23;;;10.00;99.90;;;;;;5085510;28;20081;-79
2023/03/13 05:00:57;;;;;;;10.47;6.83;;;10.00;99.90;;;;;;5114381;28;20039;-78
2023/03/13 05:03:23;;;;;;;9.13;6.70;;;10.10;99.90;;;;;;5116639;28;20707;-79
2023/03/13 05:05:49;;;;;;;12.43;7.27;;;10.10;99.90;;;;;;5114329;28;20509;-79
2023/03/13 05:08:15;;;;;;;11.90;7.23;;;10.20;99.90;;;;;;5091894;28;20039;-80
2023/03/13 05:10:43;;;;;;;11.10;7.33;;;10.20;99.90;;;;;;5080629;28;20077;-79
2023/03/13 05:13:09;;;;;;;11.00;7.47;;;10.20;99.90;;;;;;5095748;28;20042;-79
2023/03/13 05:15:35;;;;;;;13.07;7.43;;;10.30;99.90;;;;;;5114911;28;20052;-79
2023/03/13 05:18:01;;;;;;;11.33;7.47;;;10.30;99.90;;;;;;5077931;28;20104;-79
2023/03/13 05:20:26;;;;;;;10.97;7.67;;;10.30;99.90;;;;;;5115210;28;20055;-78
2023/03/13 05:22:52;;;;;;;13.17;7.10;;;10.40;99.90;;;;;;5114891;28;20044;-79
2023/03/13 05:25:18;;;;;;;12.13;7.67;;;10.40;99.90;;;;;;5113996;28;20040;-78
2023/03/13 05:27:44;;;;;;;12.90;7.60;;;10.40;99.90;;;;;;5115632;28;20052;-79
2023/03/13 05:30:10;;;;;;;11.43;8.17;;;10.50;99.90;;;;;;5092276;28;20157;-79
2023/03/13 05:32:36;;;;;;;11.23;8.40;;;10.50;99.90;;;;;;5115037;28;20036;-79
2023/03/13 05:35:02;;;;;;;12.40;7.87;;;10.60;99.90;;;;;;5112642;28;20071;-78
2023/03/13 05:37:27;;;;;;;11.03;7.03;;;10.60;99.90;;;;;;5115893;28;20297;-79
2023/03/13 05:39:53;;;;;;;11.30;7.90;;;10.70;99.90;;;;;;5096164;28;20040;-79
2023/03/13 05:42:19;;;;;;;14.30;7.70;;;10.70;99.90;;;;;;5087683;28;20032;-79
2023/03/13 05:44:45;;;;;;;9.90;6.93;;;10.70;99.90;;;;;;5113941;28;20043;-79
2023/03/13 05:47:10;;;;;;;9.80;7.03;;;10.80;99.90;;;;;;5114246;28;20035;-78
2023/03/13 05:49:36;;;;;;;10.23;7.10;;;10.80;99.90;;;;;;5117882;28;20080;-79
2023/03/13 05:52:02;;;;;;;10.23;7.07;;;10.90;99.90;;;;;;5098560;27;20050;-79
2023/03/13 05:54:28;;;;;;;9.90;7.30;;;10.90;99.90;;;;;;5117676;28;20053;-79
2023/03/13 05:56:53;;;;;;;12.20;6.90;;;10.90;99.90;;;;;;5111886;28;20089;-78
2023/03/13 05:59:19;;;;;;;9.83;7.17;;;10.90;99.90;;;;;;5114111;28;20080;-79
2023/03/13 06:01:45;;;;;;;8.77;6.83;;;11.00;99.90;;;;;;5117129;28;20050;-79
2023/03/13 06:04:10;;;;;;;9.37;6.20;;;11.00;99.90;;;;;;5115929;28;20574;-80
2023/03/13 06:06:36;;;;;;;9.23;6.80;;;11.00;99.90;;;;;;5117437;28;20462;-77
2023/03/13 06:09:02;;;;;;;8.00;6.40;;;11.10;99.90;;;;;;5115058;28;20080;-76
2023/03/13 06:11:28;;;;;;;10.67;6.67;;;11.10;99.90;;;;;;5100604;28;20055;-80
2023/03/13 06:13:54;;;;;;;8.67;6.53;;;11.10;99.90;;;;;;5098131;28;20066;-81
2023/03/13 06:16:19;;;;;;;13.73;7.10;;;11.20;99.90;;;;;;5100000;28;20110;-81
2023/03/13 06:18:45;;;;;;;10.80;6.93;;;11.20;99.90;;;;;;5081586;28;20051;-80
2023/03/13 06:21:11;;;;;;;9.87;6.40;;;11.20;99.90;;;;;;5097741;28;20514;-80
2023/03/13 06:23:37;;;;;;;11.43;6.43;;;11.30;99.90;;;;;;5134992;27;20047;-80
2023/03/13 06:26:03;;;;;;;9.63;6.70;;;11.30;99.90;;;;;;5117687;27;20039;-80
2023/03/13 06:28:28;;;;;;;11.48;7.30;;;11.30;99.90;;;;;;5120809;27;20055;-80
2023/03/13 06:30:59;;;;;;;10.93;7.07;;;11.30;99.90;;;;;;5102405;27;20106;-80
2023/03/13 06:33:25;;;;;;;12.97;7.43;;;11.40;99.90;;;;;;5103955;27;20039;-80
2023/03/13 06:35:50;;;;;;;13.07;7.23;;;11.40;99.90;;;;;;5119574;27;20100;-80
2023/03/13 06:38:16;;;;;;;13.83;7.93;;;11.40;99.90;;;;;;5102462;27;20459;-80
2023/03/13 06:40:42;;;;;;;16.10;7.43;;;11.50;99.90;;;;;;5136553;27;20031;-79
2023/03/13 06:43:07;;;;;;;16.65;7.72;;;11.40;99.90;;;;;;5116092;27;20095;-80
2023/03/13 06:45:35;;;;;;;12.90;7.73;;;11.50;99.90;;;;;;5120322;27;20043;-80
2023/03/13 06:48:01;;;;;;;11.32;8.35;;;11.40;99.90;;;;;;5137347;27;20059;-80
2023/03/13 06:50:27;;;;;;;13.40;7.47;;;11.40;99.90;;;;;;5140032;27;20067;-80
2023/03/13 06:52:53;;;;;;;12.67;7.63;;;11.50;99.90;;;;;;5100257;27;20129;-81
2023/03/13 06:55:19;;;;;;;10.85;7.50;;;11.40;99.90;;;;;;5137966;27;20043;-80
2023/03/13 06:57:51;;;;;;;13.33;8.00;;;11.40;99.90;;;;;;5120036;27;20107;-80
2023/03/13 07:00:18;;;;;;;16.25;6.90;;;11.40;99.90;;;;;;5101722;27;20035;-79
2023/03/13 07:02:44;;;;;;;11.55;6.75;;;11.50;99.90;;;;;;5130898;27;20080;-82
2023/03/13 07:05:10;;;;;;;12.98;6.90;;;11.50;99.90;;;;;;5118736;27;20042;-82
2023/03/13 07:07:36;;;;;;;12.38;6.68;;;11.50;99.90;;;;;;5134783;27;20833;-82
2023/03/13 07:10:02;;;;;;;10.60;6.82;;;11.50;99.90;;;;;;5121125;27;20106;-81
2023/03/13 07:12:28;;;;;;;12.50;6.10;;;11.60;99.90;;;;;;5125143;27;20054;-82
2023/03/13 07:14:54;;;;;;;13.53;6.43;;;11.60;99.90;;;;;;5108235;27;20051;-82
2023/03/13 07:17:19;;;;;;;11.57;6.30;;;11.60;99.90;;;;;;5087808;27;20043;-80
2023/03/13 07:19:45;;;;;;;14.87;5.80;;;11.60;99.90;;;;;;5108487;27;20185;-81
2023/03/13 07:22:11;;;;;;;13.47;6.23;;;11.60;99.90;;;;;;5123653;27;20054;-80
2023/03/13 07:24:36;;;;;;;13.90;6.13;;;11.60;99.90;;;;;;5125171;27;20046;-81
2023/03/13 07:27:02;;;;;;;13.55;6.18;;;11.60;99.90;;;;;;5106639;27;20043;-80
2023/03/13 07:29:28;;;;;;;11.88;6.25;;;11.70;99.90;;;;;;5105586;27;20036;-81
2023/03/13 07:31:54;;;;;;;11.80;6.05;;;11.60;99.90;;;;;;5107215;27;20042;-80
2023/03/13 07:34:19;;;;;;;10.32;5.95;;;11.60;99.90;;;;;;5088412;27;20100;-79
2023/03/13 07:36:45;;;;;;;8.65;4.93;;;11.70;99.90;;;;;;5127932;27;20046;-80
2023/03/13 07:39:11;;;;;;;10.27;5.13;;;11.70;99.90;;;;;;5125672;27;20050;-79
2023/03/13 07:41:37;;;;;;;10.40;5.18;;;11.70;99.90;;;;;;5107439;27;20054;-80
2023/03/13 07:44:03;;;;;;;9.27;5.25;;;11.80;99.90;;;;;;5088306;27;20055;-80
2023/03/13 07:46:29;;;;;;;11.45;5.20;;;11.80;99.90;;;;;;5089165;27;20039;-80
2023/03/13 07:48:54;;;;;;;10.90;5.27;;;11.80;99.90;;;;;;5125009;27;20051;-80
2023/03/13 07:51:23;;;;;;;9.13;5.30;;;11.90;99.90;;;;;;5104679;27;20051;-79
2023/03/13 07:53:49;;;;;;;10.98;4.93;;;11.90;99.90;;;;;;5124723;27;20055;-84
2023/03/13 07:56:18;;;;;;;9.50;4.38;;;11.90;99.90;;;;;;5121918;27;20108;-79
2023/03/13 07:58:44;;;;;;;8.02;4.93;;;12.00;99.90;;;;;;5105938;27;20062;-79
2023/03/13 08:01:21;;;;;;;11.02;5.28;;;12.00;99.90;;;;;;5121842;27;20098;-81
2023/03/13 08:03:49;;;;;;;10.18;4.32;;;12.00;99.90;;;;;;5105835;27;21429;-80
2023/03/13 08:06:22;;;;;;;7.47;4.15;;;12.00;99.90;;;;;;5106134;27;20337;-80
2023/03/13 08:08:49;;;;;;;7.43;4.38;;;12.00;99.90;;;;;;5104340;27;20074;-80
2023/03/13 08:11:17;;;;;;;7.05;4.00;;;12.00;99.90;;;;;;5123641;27;20071;-80
2023/03/13 08:13:43;;;;;;;5.85;4.00;;;12.00;99.90;;;;;;5122447;27;20561;-80
2023/03/13 08:16:20;;;;;;;7.97;4.25;;;12.00;99.90;;;;;;5082002;27;20050;-79
2023/03/13 08:18:48;;;;;;;8.43;4.53;;;12.00;99.90;;;;;;5104372;27;20050;-80
2023/03/13 08:21:23;;;;;;;8.82;5.00;;;11.90;99.90;;;;;;5103432;27;20042;-79
2023/03/13 08:23:53;;;;;;;7.82;4.50;;;11.90;99.90;;;;;;5122679;27;20050;-80
2023/03/13 08:26:20;;;;;;;9.48;4.82;;;11.80;99.90;;;;;;5121365;27;20049;-81
2023/03/13 08:28:51;;;;;;;9.70;4.38;;;11.80;99.90;;;;;;5087819;27;20091;-80
2023/03/13 08:31:47;;;;;;;6.50;4.60;;;11.80;99.90;;;;;;5103366;27;20451;-80
2023/03/13 08:34:15;;;;;;;6.25;3.70;;;11.70;99.90;;;;;;5072898;27;20607;-80
2023/03/13 08:36:41;;;;;;;7.85;4.25;;;11.80;99.90;;;;;;5124759;27;20108;-80
2023/03/13 08:39:11;;;;;;;7.78;3.95;;;11.80;99.90;;;;;;5122479;27;20470;-85
2023/03/13 08:41:39;;;;;;;6.55;4.18;;;11.80;99.90;;;;;;5124113;27;20059;-80
2023/03/13 08:44:05;;;;;;;9.30;4.22;;;11.90;99.90;;;;;;5122968;27;20043;-79
2023/03/13 08:46:33;;;;;;;5.57;4.00;;;11.90;99.90;;;;;;5103760;27;20989;-80
2023/03/13 08:48:59;;;;;;;6.53;4.05;;;11.90;99.90;;;;;;5123211;27;20051;-81
2023/03/13 08:51:27;;;;;;;7.53;4.20;;;11.90;99.90;;;;;;5121557;27;20047;-79
2023/03/13 08:53:54;;;;;;;7.30;4.18;;;11.90;99.90;;;;;;5090900;27;20864;-80
2023/03/13 08:56:22;;;;;;;7.53;3.85;;;11.90;99.90;;;;;;5121199;27;20411;-81
2023/03/13 08:58:53;;;;;;;5.43;4.15;;;11.90;99.90;;;;;;5107366;27;20043;-81
2023/03/13 09:01:21;;;;;;;7.50;4.03;;;11.90;99.90;;;;;;5105324;27;20107;-81
2023/03/13 09:03:47;;;;;;;7.28;4.00;;;11.90;99.90;;;;;;5106474;27;20087;-81
2023/03/13 09:06:13;;;;;;;7.70;3.97;;;12.00;99.90;;;;;;5106104;27;20043;-80
2023/03/13 09:08:40;;;;;;;8.40;3.97;;;12.20;99.90;;;;;;5123052;27;20042;-81
2023/03/13 09:11:12;;;;;;;6.05;3.60;;;12.30;99.90;;;;;;5088312;27;20111;-80
2023/03/13 09:13:41;;;;;;;7.38;3.50;;;12.40;99.90;;;;;;5103332;27;20506;-79
2023/03/13 09:16:09;;;;;;;5.07;3.63;;;12.40;99.90;;;;;;5122190;27;20048;-80
2023/03/13 09:18:35;;;;;;;8.23;3.72;;;12.50;99.90;;;;;;5102963;27;20666;-80
2023/03/13 09:21:02;;;;;;;4.68;3.53;;;12.50;99.90;;;;;;5067261;27;20043;-79
2023/03/13 09:23:28;;;;;;;6.18;3.05;;;12.60;99.90;;;;;;5104123;27;20506;-79
2023/03/13 09:25:56;;;;;;;6.28;3.67;;;12.60;99.90;;;;;;5079434;27;20050;-79
2023/03/13 09:28:23;;;;;;;7.55;3.50;;;12.70;99.90;;;;;;5121194;27;20054;-78
2023/03/13 09:30:49;;;;;;;6.80;3.40;;;12.70;99.90;;;;;;5120524;27;20039;-80
2023/03/13 09:33:20;;;;;;;6.75;3.00;;;12.70;99.90;;;;;;5123335;27;20114;-79
2023/03/13 09:35:52;;;;;;;4.82;3.10;;;12.60;99.90;;;;;;5082443;27;20050;-78
2023/03/13 09:38:18;;;;;;;;;;;12.70;99.90;;;;;;5085552;27;20350;-79
2023/03/13 09:40:49;;;;;;;5.45;3.42;;;12.60;99.90;;;;;;5104485;27;19935;-80
2023/03/13 09:43:38;;;;;;;9.10;3.50;;;12.60;99.90;;;;;;5120275;27;20129;-80
2023/03/13 09:46:12;;;;;;;5.43;3.53;;;12.70;99.90;;;;;;5103872;27;21718;-79
2023/03/13 09:48:58;;;;;;;7.88;3.90;;;12.60;99.90;;;;;;5103285;27;20067;-79
2023/03/13 09:51:29;;;;;;;9.07;4.10;;;12.60;99.90;;;;;;5103137;27;20367;-79
2023/03/13 09:54:07;;;;;;;8.57;3.65;;;12.60;99.90;;;;;;5122407;27;20095;-79
2023/03/13 09:56:38;;;;;;;3.60;2.75;;;12.60;99.90;;;;;;5120046;27;20043;-79
2023/03/13 09:59:23;;;;;;;8.43;2.70;;;12.60;99.90;;;;;;5103448;27;20417;-80
2023/03/13 10:01:50;;;;;;;7.30;3.35;;;12.70;99.90;;;;;;5105199;27;20047;-79
2023/03/13 10:04:18;;;;;;;7.22;3.35;;;12.70;99.90;;;;;;5122053;27;20057;-79
2023/03/13 10:06:46;;;;;;;5.05;2.72;;;12.80;99.90;;;;;;5105846;27;20065;-80
2023/03/13 10:09:25;;;;;;;6.03;3.05;;;12.80;99.90;;;;;;5123886;27;20042;-78
2023/03/13 10:12:22;;;;;;;8.32;3.35;;;12.90;99.90;;;;;;5107305;27;20047;-80
2023/03/13 10:15:11;;;;;;;6.95;2.92;;;13.00;99.90;;;;;;5123025;27;20039;-79
2023/03/13 10:17:38;;;;;;;5.30;2.92;;;13.10;99.90;;;;;;5084872;27;20027;-80
2023/03/13 10:20:24;;;;;;;6.40;2.75;;;13.20;99.90;;;;;;5104420;27;20047;-80
2023/03/13 10:23:15;;;;;;;6.82;2.67;;;13.30;99.90;;;;;;5104904;27;20055;-80
2023/03/13 10:25:40;;;;;;;5.13;2.78;;;13.50;99.90;;;;;;5084139;27;20063;-78
2023/03/13 10:28:19;;;;;;;4.95;2.60;;;13.50;99.90;;;;;;5124070;27;20077;-78
2023/03/13 10:31:10;;;;;;;8.20;3.05;;;13.60;99.90;;;;;;5085865;27;20084;-79
2023/03/13 10:33:36;;;;;;;7.18;2.42;;;13.60;99.90;;;;;;5076953;27;20063;-79
2023/03/13 10:36:04;;;;;;;6.15;2.80;;;13.60;99.90;;;;;;5105820;27;20046;-79
2023/03/13 10:38:52;;;;;;;7.53;2.55;;;13.70;99.90;;;;;;5121376;27;20094;-78
2023/03/13 10:41:37;;;;;;;7.82;2.97;;;13.70;99.90;;;;;;5103568;27;20516;-78
2023/03/13 10:44:07;;;;;;;6.10;2.70;;;13.80;99.90;;;;;;5120896;27;20078;-78
2023/03/13 10:46:38;;;;;;;9.30;3.20;;;13.80;99.90;;;;;;5121413;27;20063;-78
2023/03/13 10:49:22;;;;;;;6.60;3.22;;;13.90;99.90;;;;;;5121888;27;20047;-79
2023/03/13 10:51:56;;;;;;;6.13;2.85;;;14.00;99.90;;;;;;5102685;27;20035;-77
2023/03/13 10:54:30;;;;;;;9.85;2.60;;;14.10;99.90;;;;;;5123465;27;20051;-78
2023/03/13 10:57:17;;;;;;;10.63;2.90;;;14.10;99.90;;;;;;5122469;27;20051;-78
2023/03/13 10:59:46;;;;;;;7.43;2.70;;;14.10;99.90;;;;;;5122700;27;20066;-78
2023/03/13 11:02:35;;;;;;;9.95;3.20;;;14.10;99.90;;;;;;5121960;27;20599;-78
2023/03/13 11:05:42;;;;;;;9.20;2.72;;;14.20;99.90;;;;;;5102765;27;20035;-77
2023/03/13 11:08:27;;;;;;;6.15;2.72;;;14.20;99.90;;;;;;5058344;28;20040;-78
2023/03/13 11:11:00;;;;;;;6.88;2.83;;;14.30;99.90;;;;;;5046445;28;20617;-78
2023/03/13 11:13:42;;;;;;;8.48;3.22;;;14.40;99.90;;;;;;5086072;27;20066;-77
2023/03/13 11:16:18;;;;;;;7.87;2.87;;;14.60;99.90;;;;;;5109784;27;20075;-78
2023/03/13 11:19:05;;;;;;;6.63;2.65;;;14.60;99.90;;;;;;5126236;27;21096;-79
2023/03/13 11:21:51;;;;;;;6.13;2.80;;;14.70;99.90;;;;;;5123064;27;20079;-78
2023/03/13 11:24:39;;;;;;;5.85;2.75;;;14.70;99.90;;;;;;5108154;27;20043;-78
2023/03/13 11:27:20;;;;;;;10.18;2.72;;;14.60;99.90;;;;;;5085947;27;20047;-79
2023/03/13 11:30:00;;;;;;;6.45;2.47;;;14.60;99.90;;;;;;5089680;27;20465;-87
2023/03/13 11:32:30;;;;;;;6.63;2.50;;;14.70;99.90;;;;;;5090243;27;20043;-78
2023/03/13 11:35:05;;;;;;;10.15;3.17;;;14.70;99.90;;;;;;5088636;27;20039;-78
2023/03/13 11:37:34;;;;;;;4.80;2.50;;;14.80;99.90;;;;;;5125484;27;20035;-78
2023/03/13 11:40:05;;;;;;;8.55;2.42;;;14.80;99.90;;;;;;5125289;27;20031;-78
2023/03/13 11:43:01;;;;;;;5.05;2.13;;;14.90;99.90;;;;;;5106005;27;20039;-77
2023/03/13 11:45:45;;;;;;;4.80;1.90;;;14.90;99.90;;;;;;5083852;27;20504;-78
2023/03/13 11:48:28;;;;;;;2.50;1.60;;;15.00;99.90;;;;;;5088236;27;20310;-77
2023/03/13 11:51:16;;;;;;;5.10;1.90;;;14.90;99.90;;;;;;5123035;27;20134;-77
2023/03/13 11:54:00;;;;;;;4.97;1.80;;;15.00;99.90;;;;;;5088273;27;20106;-77
2023/03/13 11:56:39;;;;;;;5.55;1.60;;;15.10;99.90;;;;;;5123814;27;20043;-78
2023/03/13 11:59:26;;;;;;;3.88;1.80;;;15.00;99.90;;;;;;5124850;27;20481;-78
2023/03/13 12:02:09;;;;;;;2.10;1.45;;;15.10;99.90;;;;;;5108470;27;20039;-79
2023/03/13 12:04:53;;;;;;;4.88;1.52;;;15.20;99.90;;;;;;5122283;27;20567;-79
2023/03/13 12:07:28;;;;;;;5.40;1.75;;;15.40;99.90;;;;;;5124400;27;20574;-78
2023/03/13 12:10:02;;;;;;;4.65;1.63;;;15.40;99.90;;;;;;5088521;27;20104;-78
2023/03/13 12:13:03;;;;;;;5.10;2.22;;;15.40;99.90;;;;;;5124616;27;20042;-78
2023/03/13 12:15:36;;;;;;;2.47;1.60;;;15.30;99.90;;;;;;5106568;27;20074;-77
2023/03/13 12:18:16;;;;;;;7.07;1.90;;;15.40;99.90;;;;;;5123011;27;20043;-78
2023/03/13 12:20:46;;;;;;;5.63;2.30;;;15.50;99.90;;;;;;5088730;27;20135;-78
2023/03/13 12:23:33;;;;;;;3.63;1.90;;;15.50;99.90;;;;;;5124649;27;20061;-79
2023/03/13 12:26:20;;;;;;;6.82;1.88;;;15.50;99.90;;;;;;5101953;27;20043;-79
2023/03/13 12:29:07;;;;;;;6.70;2.00;;;15.50;99.90;;;;;;5125211;27;20047;-77
2023/03/13 12:31:35;;;;;;;4.63;1.80;;;15.50;99.90;;;;;;5124183;27;20046;-79
2023/03/13 12:34:13;;;;;;;7.05;2.05;;;15.50;99.90;;;;;;5104900;27;20050;-79
2023/03/13 12:36:45;;;;;;;4.07;1.80;;;15.50;99.90;;;;;;5089670;27;20047;-79
2023/03/13 12:39:34;;;;;;;6.03;2.25;;;15.50;99.90;;;;;;5103828;27;20458;-79
2023/03/13 12:42:18;;;;;;;4.65;1.92;;;15.60;99.90;;;;;;5106033;27;20055;-79
2023/03/13 12:44:45;;;;;;;6.70;1.77;;;15.70;99.90;;;;;;5088975;27;20043;-79
2023/03/13 12:47:32;;;;;;;4.60;2.00;;;15.70;99.90;;;;;;5104859;27;20868;-79
2023/03/13 12:50:01;;;;;;;6.10;2.00;;;15.60;99.90;;;;;;5105982;27;20111;-79
2023/03/13 12:53:05;;;;;;;4.10;1.77;;;15.60;99.90;;;;;;5087255;27;20103;-79
2023/03/13 12:56:08;;;;;;;6.93;2.17;;;15.50;99.90;;;;;;5103387;27;20077;-79
2023/03/13 12:58:46;;;;;;;5.55;2.00;;;15.50;99.90;;;;;;5108340;27;20058;-79
2023/03/13 13:01:55;;;;;;;7.55;2.53;;;15.50;99.90;;;;;;5107101;27;20100;-78
2023/03/13 13:04:23;;;;;;;7.03;2.00;;;15.50;99.90;;;;;;5110738;27;20120;-79